Airfield :
LOGIN :

Register | Disclaimer

   EN    FR    IT 

 










Legend :    VFR   Marginal VFR   IFR   Intensive IFR   Very Intensive IFR
Visi :
Ceiling :
>= 8 km
>= 3000ft
5 to 8 km
1000 to 3000 ft
1500m to 5 km
500 to 1000 ft
800 to 1500m
200 to 500 ft
< 800m
< 200 ft
Symbols :   Thunderstorms  Fog  Heavy snow  Heavy precipitations  Wind > 20 kt
SIGMETs :     Misc.  Thunderstorms  Icing  Turbulence  Mountain Waves  Volcanic Ashes






- Airport Elevation : 364 ft
- IATA code : FRA


EDDF - Frankfurt Int.

CURRENT METAR :
  • 170320Z 04003KT 9999 BKN047 07/05 Q1020 NOSIG

EXPIRED METARs :
  • 170250Z 06003KT 010V080 9999 BKN047 07/05 Q1020 NOSIG
  • 170220Z 02004KT 9999 FEW045 BKN047 07/05 Q1020 NOSIG
  • 170150Z 01005KT 9999 BKN047 07/05 Q1021 NOSIG
  • 170120Z 03003KT 360V060 9999 BKN049 06/05 Q1021 NOSIG
  • 170050Z 03003KT 010V070 9999 SCT049 07/05 Q1021 NOSIG
  • 170020Z 03003KT 010V080 CAVOK 07/05 Q1021 NOSIG

TAF TAF EDDF
Valid from the 17 at 00:00 until the 18 at 06:00 UTC


162300Z 1700/1806 VRB03KT 9999 BKN040
BECMG 1714/1718 FEW040
TEMPO 1803/1806 1200 BCFG



MET'MAP, your aeronautical weather chart ! - Copyright ORBIFLY December 2007 - Disclaimer

ORBIFLY MET'MAP TEAM :

Programming & Development : Alexandra Zaïnal
Concept & original design : Baudouin d'Aumeries
Assistance for programming : Marc-Olivier Méhu
Technical & hardware support : Manuel Goepfert

Contact : metmap@orbifly.com




SOURCES & CREDITS :

   NOAA